createdAt,value
2022-10-16T00:01:45.616Z,12.75
2022-10-16T00:03:50.991Z,12.74
2022-10-16T00:05:56.452Z,12.74
2022-10-16T00:08:01.496Z,12.78
2022-10-16T00:10:06.960Z,12.78
2022-10-16T00:12:11.997Z,12.78
2022-10-16T00:14:17.169Z,12.89
2022-10-16T00:16:22.558Z,13.09
2022-10-16T00:18:27.795Z,13.25
2022-10-16T00:20:32.938Z,13.28
2022-10-16T00:22:38.088Z,13.22
2022-10-16T00:24:43.457Z,13.18
2022-10-16T00:26:48.953Z,13.15
2022-10-16T00:28:54.179Z,13.05
2022-10-16T00:31:00.207Z,13.06
2022-10-16T00:33:06.613Z,13.07
2022-10-16T00:35:11.690Z,13.01
2022-10-16T00:37:17.426Z,13.01
2022-10-16T00:39:22.976Z,13.04
2022-10-16T00:41:28.227Z,13.09
2022-10-16T00:43:33.349Z,13.14
2022-10-16T00:45:38.706Z,13.15
2022-10-16T00:47:43.710Z,13.12
2022-10-16T00:49:48.983Z,13.1
2022-10-16T00:51:53.974Z,13.09
2022-10-16T00:53:59.238Z,13.07
2022-10-16T00:56:04.454Z,13.05
2022-10-16T00:58:09.895Z,13.04
2022-10-16T01:00:15.369Z,12.97
2022-10-16T01:02:20.861Z,12.95
2022-10-16T01:04:27.171Z,12.92
2022-10-16T01:06:32.370Z,13.01
2022-10-16T01:08:37.731Z,13.12
2022-10-16T01:10:46.332Z,13.08
2022-10-16T01:12:51.449Z,13.06
2022-10-16T01:14:56.697Z,13.06
2022-10-16T01:17:01.811Z,13.03
2022-10-16T01:19:08.110Z,12.99
2022-10-16T01:21:13.222Z,12.96
2022-10-16T01:23:18.551Z,13.01
2022-10-16T01:25:23.924Z,13.01
2022-10-16T01:27:29.434Z,13
2022-10-16T01:29:34.995Z,13.01
2022-10-16T01:31:40.049Z,13.06
2022-10-16T01:33:45.495Z,13.18
2022-10-16T01:35:50.936Z,13.19
2022-10-16T01:37:56.034Z,13.18
2022-10-16T01:40:01.209Z,13.16
2022-10-16T01:42:06.404Z,13.19
2022-10-16T01:44:11.460Z,13.21
2022-10-16T01:46:16.567Z,13.19
2022-10-16T01:48:24.776Z,13.17
2022-10-16T01:50:30.079Z,13.19
2022-10-16T01:52:35.285Z,13.17
2022-10-16T01:54:40.620Z,13.15
2022-10-16T01:56:45.994Z,13.07
2022-10-16T01:58:51.100Z,13.05
2022-10-16T02:00:56.368Z,13.02
2022-10-16T02:03:02.396Z,12.96
2022-10-16T02:05:08.603Z,12.93
2022-10-16T02:07:13.953Z,12.87
2022-10-16T02:09:19.072Z,12.82
2022-10-16T02:11:24.247Z,12.8
2022-10-16T02:13:29.282Z,12.8
2022-10-16T02:15:35.378Z,12.79
2022-10-16T02:17:43.355Z,12.77
2022-10-16T02:19:48.706Z,12.75
2022-10-16T02:21:54.024Z,12.75
2022-10-16T02:23:59.493Z,12.74
2022-10-16T02:26:05.815Z,12.75
2022-10-16T02:28:10.942Z,12.72
2022-10-16T02:30:16.017Z,12.69
2022-10-16T02:32:21.347Z,12.68
2022-10-16T02:34:29.270Z,12.65
2022-10-16T02:36:34.427Z,12.68
2022-10-16T02:38:39.584Z,12.73
2022-10-16T02:40:44.826Z,12.78
2022-10-16T02:42:50.615Z,12.78
2022-10-16T02:44:55.921Z,12.8
2022-10-16T02:47:01.694Z,12.97
2022-10-16T02:49:07.156Z,13.15
2022-10-16T02:51:12.453Z,13.22
2022-10-16T02:53:17.728Z,13.25
2022-10-16T02:55:22.858Z,13.3
2022-10-16T02:57:28.595Z,13.32
2022-10-16T02:59:33.991Z,13.29
2022-10-16T03:01:39.198Z,13.24
2022-10-16T03:03:44.578Z,13.21
2022-10-16T03:05:49.701Z,13.23
2022-10-16T03:07:55.057Z,13.2
2022-10-16T03:10:00.254Z,13.18
2022-10-16T03:12:05.334Z,13.18
2022-10-16T03:14:10.669Z,13.18
2022-10-16T03:16:15.912Z,13.18
2022-10-16T03:18:21.029Z,13.14
2022-10-16T03:20:26.213Z,13.07
2022-10-16T03:22:31.379Z,13.16
2022-10-16T03:24:36.422Z,13.16
2022-10-16T03:26:41.826Z,13.18
2022-10-16T03:28:46.991Z,13.19
2022-10-16T03:30:52.601Z,13.19
2022-10-16T03:32:57.999Z,13.19
2022-10-16T03:35:03.200Z,13.18
2022-10-16T03:37:08.264Z,13.2
2022-10-16T03:39:13.660Z,13.23
2022-10-16T03:41:18.822Z,13.21
2022-10-16T03:43:24.002Z,13.17
2022-10-16T03:45:29.051Z,13.1
2022-10-16T03:47:34.135Z,13.02
2022-10-16T03:49:39.203Z,12.95
2022-10-16T03:51:44.506Z,12.78
2022-10-16T03:53:49.548Z,12.7
2022-10-16T03:55:54.932Z,12.59
2022-10-16T03:57:59.914Z,12.43
2022-10-16T04:00:05.540Z,12.28
2022-10-16T04:02:10.627Z,12.12
2022-10-16T04:04:15.959Z,12.01
2022-10-16T04:06:22.258Z,11.93
2022-10-16T04:08:27.368Z,11.91
2022-10-16T04:10:32.672Z,11.85
2022-10-16T04:12:38.194Z,11.9
2022-10-16T04:14:44.434Z,11.86
2022-10-16T04:16:49.546Z,11.79
2022-10-16T04:18:54.715Z,11.67
2022-10-16T04:20:59.931Z,11.61
2022-10-16T04:23:05.165Z,11.52
2022-10-16T04:25:10.155Z,11.45
2022-10-16T04:27:16.546Z,11.36
2022-10-16T04:29:21.890Z,11.26
2022-10-16T04:31:26.929Z,11.12
2022-10-16T04:33:32.117Z,11.02
2022-10-16T04:35:38.398Z,10.93
2022-10-16T04:37:43.764Z,10.83
2022-10-16T04:39:48.658Z,10.73
2022-10-16T04:41:53.817Z,10.65
2022-10-16T04:43:59.086Z,10.56
2022-10-16T04:46:04.300Z,10.46
2022-10-16T04:48:09.246Z,10.36
2022-10-16T04:50:14.368Z,10.29
2022-10-16T04:52:19.398Z,10.21
2022-10-16T04:54:25.074Z,10.19
2022-10-16T04:56:30.260Z,10.15
2022-10-16T04:58:35.547Z,10.17
2022-10-16T05:00:40.774Z,10.15
2022-10-16T05:02:46.091Z,10.09
2022-10-16T05:04:51.680Z,10.06
2022-10-16T05:06:56.825Z,10.03
2022-10-16T05:09:02.040Z,10.01
2022-10-16T05:11:07.192Z,10
2022-10-16T05:13:12.597Z,9.95
2022-10-16T05:15:17.694Z,9.95
2022-10-16T05:17:24.353Z,9.94
2022-10-16T05:19:31.591Z,9.9
2022-10-16T05:21:36.976Z,9.87
2022-10-16T05:23:42.547Z,9.85
2022-10-16T05:25:47.443Z,9.83
2022-10-16T05:27:53.293Z,9.82
2022-10-16T05:29:59.041Z,9.84
2022-10-16T05:32:04.591Z,9.86
2022-10-16T05:34:10.888Z,9.89
2022-10-16T05:36:16.122Z,9.92
2022-10-16T05:38:21.354Z,9.98
2022-10-16T05:40:26.920Z,10.03
2022-10-16T05:42:32.519Z,10.12
2022-10-16T05:44:38.288Z,10.2
2022-10-16T05:46:44.433Z,10.29
2022-10-16T05:48:50.023Z,10.33
2022-10-16T05:50:56.073Z,10.39
2022-10-16T05:53:01.897Z,10.47
2022-10-16T05:55:07.863Z,10.57
2022-10-16T05:57:14.113Z,10.63
2022-10-16T05:59:19.974Z,10.69
2022-10-16T06:01:26.196Z,10.75
2022-10-16T06:03:31.771Z,10.96
2022-10-16T06:05:36.977Z,11.27
2022-10-16T06:07:45.649Z,11.46
2022-10-16T06:09:51.098Z,11.74
2022-10-16T06:11:56.538Z,11.93
2022-10-16T06:14:02.384Z,12.08
2022-10-16T06:16:08.303Z,12.25
2022-10-16T06:18:14.791Z,12.52
2022-10-16T06:20:21.696Z,12.71
2022-10-16T06:22:26.911Z,12.96
2022-10-16T06:24:32.261Z,13.1
2022-10-16T06:26:38.202Z,13.25
2022-10-16T06:28:43.968Z,13.29
2022-10-16T06:30:50.303Z,13.26
2022-10-16T06:35:02.868Z,13.4
2022-10-16T06:37:08.508Z,13.55
2022-10-16T06:39:14.218Z,13.58
2022-10-16T06:41:20.273Z,13.64
2022-10-16T06:43:26.672Z,13.63
2022-10-16T06:45:32.807Z,13.61
2022-10-16T06:47:39.328Z,13.64
2022-10-16T06:49:47.343Z,13.77
2022-10-16T06:51:59.173Z,13.85
2022-10-16T06:54:05.413Z,13.89
2022-10-16T06:56:11.757Z,13.91
2022-10-16T06:58:19.406Z,13.97
2022-10-16T07:00:25.743Z,14.06
2022-10-16T07:02:32.283Z,14.09
2022-10-16T07:04:38.663Z,14.19
2022-10-16T07:06:45.042Z,14.27
2022-10-16T07:08:51.464Z,14.38
2022-10-16T07:10:57.856Z,14.48
2022-10-16T07:13:04.823Z,14.51
2022-10-16T07:15:11.965Z,14.56
2022-10-16T07:17:18.544Z,14.61
2022-10-16T07:19:24.711Z,14.56
2022-10-16T07:21:37.904Z,14.61
2022-10-16T07:23:44.358Z,14.6
2022-10-16T07:25:50.400Z,14.63
2022-10-16T07:27:57.663Z,14.66
2022-10-16T07:30:05.148Z,14.52
2022-10-16T07:32:14.912Z,14.48
2022-10-16T07:34:21.407Z,14.43
2022-10-16T07:36:27.955Z,14.44
2022-10-16T07:38:34.918Z,14.55
2022-10-16T07:40:41.112Z,14.67
2022-10-16T07:42:47.190Z,14.76
2022-10-16T07:44:54.071Z,14.87
2022-10-16T07:47:00.269Z,14.89
2022-10-16T07:49:06.374Z,14.99
2022-10-16T07:51:13.144Z,15
2022-10-16T07:53:22.427Z,15.06
2022-10-16T07:55:32.398Z,15.13
2022-10-16T07:57:38.924Z,15.13
2022-10-16T07:59:45.163Z,15.15
2022-10-16T08:01:54.727Z,15.24
2022-10-16T08:04:01.312Z,15.33
2022-10-16T08:06:07.618Z,15.41
2022-10-16T08:08:14.129Z,15.52
2022-10-16T08:10:20.317Z,15.71
2022-10-16T08:12:27.113Z,15.85
2022-10-16T08:14:34.406Z,15.9
2022-10-16T08:16:40.801Z,15.95
2022-10-16T08:18:47.485Z,16.1
2022-10-16T08:20:54.214Z,16.14
2022-10-16T08:23:00.872Z,16.18
2022-10-16T08:25:07.595Z,16.29
2022-10-16T08:27:16.113Z,16.47
2022-10-16T08:29:22.819Z,16.71
2022-10-16T08:31:29.429Z,16.98
2022-10-16T08:33:35.707Z,17.25
2022-10-16T08:35:42.188Z,17.35
2022-10-16T08:37:48.328Z,17.5
2022-10-16T08:39:57.070Z,17.54
2022-10-16T08:42:03.377Z,17.69
2022-10-16T08:44:09.710Z,17.91
2022-10-16T08:46:16.332Z,17.98
2022-10-16T08:48:23.739Z,18.2
2022-10-16T08:50:30.328Z,18.07
2022-10-16T08:52:36.552Z,18.36
2022-10-16T08:54:43.503Z,18.28
2022-10-16T08:56:51.004Z,18.15
2022-10-16T08:58:59.857Z,18.07
2022-10-16T09:01:09.184Z,18.21
2022-10-16T09:03:16.163Z,18.25
2022-10-16T09:05:23.480Z,18.49
2022-10-16T09:07:29.572Z,18.41
2022-10-16T09:09:35.716Z,18.14
2022-10-16T09:11:42.115Z,18.19
2022-10-16T09:13:48.997Z,18.06
2022-10-16T09:15:56.074Z,18.35
2022-10-16T09:18:03.256Z,18.43
2022-10-16T09:20:10.910Z,18.15
2022-10-16T09:22:17.779Z,18.03
2022-10-16T09:24:26.848Z,18.07
2022-10-16T09:26:35.220Z,18.39
2022-10-16T09:28:42.851Z,18.73
2022-10-16T09:30:49.700Z,19.88
2022-10-16T09:32:56.965Z,20.47
2022-10-16T09:35:04.968Z,20.31
2022-10-16T09:37:11.458Z,21.02
2022-10-16T09:39:18.004Z,21.73
2022-10-16T09:41:23.830Z,21.46
2022-10-16T09:43:30.238Z,21.07
2022-10-16T09:45:37.389Z,20.37
2022-10-16T09:47:47.139Z,20.83
2022-10-16T09:50:00.301Z,21.25
2022-10-16T09:52:07.179Z,21.76
2022-10-16T09:54:14.375Z,22.81
2022-10-16T09:56:21.632Z,23.1
2022-10-16T09:58:28.058Z,23.12
2022-10-16T10:00:35.999Z,23.44
2022-10-16T10:02:43.040Z,22.01
2022-10-16T10:04:51.145Z,21.58
2022-10-16T10:06:58.687Z,21.04
2022-10-16T10:09:06.534Z,21.24
2022-10-16T10:11:15.294Z,21.1
2022-10-16T10:13:22.870Z,21.6
2022-10-16T10:15:29.803Z,21.45
2022-10-16T10:17:36.324Z,22.3
2022-10-16T10:19:43.916Z,22.39
2022-10-16T10:21:50.870Z,22.51
2022-10-16T10:24:00.472Z,22.71
2022-10-16T10:26:08.494Z,22.92
2022-10-16T10:28:15.685Z,23.7
2022-10-16T10:30:22.702Z,22.76
2022-10-16T10:32:30.348Z,22.73
2022-10-16T10:34:38.369Z,23.11
2022-10-16T10:36:44.970Z,23.13
2022-10-16T10:38:53.919Z,22.88
2022-10-16T10:41:00.642Z,22.54
2022-10-16T10:43:08.557Z,22.86
2022-10-16T10:45:15.720Z,22.62
2022-10-16T10:47:23.063Z,22.68
2022-10-16T10:49:31.666Z,21.66
2022-10-16T10:51:38.618Z,21.69
2022-10-16T10:53:45.428Z,21.42
2022-10-16T10:55:51.855Z,21.01
2022-10-16T10:57:59.207Z,20.89
2022-10-16T11:00:06.204Z,21.11
2022-10-16T11:02:12.793Z,20.5
2022-10-16T11:04:20.827Z,20.44
2022-10-16T11:06:27.617Z,20.45
2022-10-16T11:08:34.221Z,20.76
2022-10-16T11:10:41.383Z,21.21
2022-10-16T11:12:48.024Z,21.81
2022-10-16T11:14:55.661Z,21.95
2022-10-16T11:17:03.224Z,21.75
2022-10-16T11:19:10.179Z,22.14
2022-10-16T11:21:18.062Z,22.08
2022-10-16T11:23:30.926Z,22.18
2022-10-16T11:25:37.341Z,22.08
2022-10-16T11:27:44.221Z,21.59
2022-10-16T11:29:51.379Z,21.32
2022-10-16T11:31:58.117Z,21.32
2022-10-16T11:34:06.808Z,21.21
2022-10-16T11:36:13.098Z,21.41
2022-10-16T11:38:20.161Z,21.49
2022-10-16T11:40:26.522Z,21.87
2022-10-16T11:42:32.668Z,22.09
2022-10-16T11:44:39.069Z,21.76
2022-10-16T11:46:52.506Z,21.9
2022-10-16T11:50:05.423Z,22.77
2022-10-16T11:52:11.624Z,22.38
2022-10-16T11:54:19.052Z,21.63
2022-10-16T11:56:25.464Z,21.39
2022-10-16T11:58:31.931Z,21.31
2022-10-16T12:00:38.237Z,20.89
2022-10-16T12:02:44.411Z,20.76
2022-10-16T12:04:50.819Z,20.95
2022-10-16T12:06:56.936Z,20.84
2022-10-16T12:09:03.228Z,20.91
2022-10-16T12:11:10.077Z,20.59
2022-10-16T12:13:16.028Z,20.34
2022-10-16T12:15:35.089Z,20.5
2022-10-16T12:18:05.363Z,20.41
2022-10-16T12:20:11.625Z,20.59
2022-10-16T12:22:18.032Z,20.72
2022-10-16T12:24:25.095Z,20.56
2022-10-16T12:26:31.521Z,20.6
2022-10-16T12:28:38.047Z,20.7
2022-10-16T12:30:44.569Z,20.72
2022-10-16T12:32:51.069Z,20.88
2022-10-16T12:34:59.464Z,20.75
2022-10-16T12:37:05.986Z,20.78
2022-10-16T12:39:13.134Z,20.6
2022-10-16T12:41:19.528Z,20.56
2022-10-16T12:43:27.447Z,20.52
2022-10-16T12:45:36.101Z,20.48
2022-10-16T12:47:43.815Z,20.35
2022-10-16T12:49:51.338Z,20.38
2022-10-16T12:51:57.878Z,20.33
2022-10-16T12:54:04.457Z,20.39
2022-10-16T12:56:10.808Z,20.3
2022-10-16T12:58:17.894Z,20.35
2022-10-16T13:00:24.301Z,20.36
2022-10-16T13:02:31.314Z,20.3
2022-10-16T13:04:37.493Z,20.25
2022-10-16T13:06:43.848Z,20.32
2022-10-16T13:08:50.311Z,20.33
2022-10-16T13:10:56.609Z,20.34
2022-10-16T13:13:02.721Z,20.49
2022-10-16T13:15:09.302Z,20.59
2022-10-16T13:17:15.905Z,20.73
2022-10-16T13:19:23.533Z,21.01
2022-10-16T13:21:29.641Z,21.03
2022-10-16T13:23:35.763Z,21.13
2022-10-16T13:25:42.652Z,21.09
2022-10-16T13:27:48.952Z,21.18
2022-10-16T13:29:55.264Z,20.86
2022-10-16T13:32:06.369Z,20.68
2022-10-16T13:34:12.842Z,20.42
2022-10-16T13:36:19.089Z,20.34
2022-10-16T13:38:26.117Z,20.38
2022-10-16T13:40:33.232Z,20.36
2022-10-16T13:42:39.649Z,20.44
2022-10-16T13:44:45.961Z,20.41
2022-10-16T13:46:52.098Z,20.18
2022-10-16T13:48:58.300Z,20.11
2022-10-16T13:51:04.851Z,20.04
2022-10-16T13:53:10.995Z,19.95
2022-10-16T13:55:17.498Z,19.88
2022-10-16T13:57:27.017Z,19.82
2022-10-16T13:59:33.589Z,19.83
2022-10-16T14:01:40.131Z,19.74
2022-10-16T14:03:46.734Z,19.7
2022-10-16T14:05:52.753Z,19.67
2022-10-16T14:07:58.993Z,19.71
2022-10-16T14:10:05.425Z,19.76
2022-10-16T14:12:11.818Z,19.78
2022-10-16T14:14:18.323Z,19.87
2022-10-16T14:16:24.540Z,19.88
2022-10-16T14:18:33.473Z,19.83
2022-10-16T14:20:41.250Z,19.87
2022-10-16T14:22:47.819Z,19.77
2022-10-16T14:24:54.217Z,19.69
2022-10-16T14:27:00.488Z,19.66
2022-10-16T14:29:07.554Z,19.59
2022-10-16T14:31:13.806Z,19.6
2022-10-16T14:33:20.533Z,19.59
2022-10-16T14:35:28.132Z,19.62
2022-10-16T14:37:35.298Z,19.69
2022-10-16T14:39:43.165Z,19.71
2022-10-16T14:41:50.953Z,19.68
2022-10-16T14:43:57.819Z,19.67
2022-10-16T14:46:05.209Z,19.71
2022-10-16T14:48:15.852Z,19.61
2022-10-16T14:50:26.594Z,19.53
2022-10-16T14:52:33.291Z,19.51
2022-10-16T14:54:40.010Z,19.51
2022-10-16T14:56:47.088Z,19.47
2022-10-16T14:58:54.408Z,19.41
2022-10-16T15:01:01.347Z,19.26
2022-10-16T15:03:08.090Z,19.21
2022-10-16T15:05:15.083Z,19.2
2022-10-16T15:07:21.634Z,19.11
2022-10-16T15:09:30.662Z,19.04
2022-10-16T15:11:37.250Z,18.95
2022-10-16T15:13:44.039Z,18.81
2022-10-16T15:15:50.922Z,18.65
2022-10-16T15:17:57.642Z,18.45
2022-10-16T15:20:04.898Z,18.27
2022-10-16T15:22:12.023Z,18.1
2022-10-16T15:24:20.673Z,17.93
2022-10-16T15:26:28.417Z,17.8
2022-10-16T15:28:35.019Z,17.63
2022-10-16T15:30:42.266Z,17.49
2022-10-16T15:32:51.030Z,17.36
2022-10-16T15:34:58.273Z,17.24
2022-10-16T15:37:04.530Z,17.08
2022-10-16T15:39:11.712Z,16.96
2022-10-16T15:41:18.009Z,16.85
2022-10-16T15:43:24.287Z,16.75
2022-10-16T15:45:31.603Z,16.62
2022-10-16T15:47:40.255Z,16.54
2022-10-16T15:49:51.151Z,16.4
2022-10-16T15:51:57.360Z,16.29
2022-10-16T15:54:03.888Z,16.2
2022-10-16T15:56:10.463Z,16.14
2022-10-16T15:58:16.938Z,16.11
2022-10-16T16:00:22.889Z,16.07
2022-10-16T16:02:29.604Z,16.04
2022-10-16T16:04:43.723Z,16.01
2022-10-16T16:06:51.788Z,16
2022-10-16T16:08:59.238Z,15.99
2022-10-16T16:11:07.164Z,15.96
2022-10-16T16:13:14.190Z,15.93
2022-10-16T16:15:20.747Z,15.92
2022-10-16T16:17:28.274Z,15.89
2022-10-16T16:19:34.377Z,15.88
2022-10-16T16:21:40.161Z,15.83
2022-10-16T16:23:46.767Z,15.8
2022-10-16T16:25:54.604Z,15.76
2022-10-16T16:28:01.787Z,15.71
2022-10-16T16:30:08.514Z,15.65
2022-10-16T16:32:21.967Z,15.62
2022-10-16T16:34:31.392Z,15.53
2022-10-16T16:36:38.598Z,15.52
2022-10-16T16:38:45.710Z,15.5
2022-10-16T16:40:54.163Z,15.46
2022-10-16T16:43:03.596Z,15.4
2022-10-16T16:45:11.203Z,15.37
2022-10-16T16:47:19.408Z,15.3
2022-10-16T16:49:31.185Z,15.26
2022-10-16T16:51:39.860Z,15.23
2022-10-16T16:53:48.076Z,15.2
2022-10-16T16:55:58.839Z,15.18
2022-10-16T16:58:13.507Z,15.13
2022-10-16T17:00:21.744Z,15.11
2022-10-16T17:02:35.455Z,15.07
2022-10-16T17:04:44.910Z,15.04
2022-10-16T17:06:54.483Z,15.01
2022-10-16T17:09:05.669Z,14.98
2022-10-16T17:11:14.940Z,14.9
2022-10-16T17:13:24.698Z,14.85
2022-10-16T17:15:35.251Z,14.78
2022-10-16T17:17:44.846Z,14.73
2022-10-16T17:20:02.899Z,14.7
2022-10-16T17:22:15.112Z,14.67
2022-10-16T17:24:28.028Z,14.66
2022-10-16T17:26:37.146Z,14.65
2022-10-16T17:28:46.757Z,14.64
2022-10-16T17:30:59.006Z,14.67
2022-10-16T17:33:15.595Z,14.67
2022-10-16T17:35:28.688Z,14.63
2022-10-16T17:37:39.649Z,14.64
2022-10-16T17:42:24.175Z,14.73
2022-10-16T17:44:39.205Z,14.81
2022-10-16T17:46:50.903Z,14.94
2022-10-16T17:49:05.632Z,15.12
2022-10-16T17:51:18.201Z,15.19
2022-10-16T17:53:29.751Z,15.41
2022-10-16T17:55:44.229Z,15.46
2022-10-16T17:57:56.738Z,15.41
2022-10-16T18:00:14.042Z,15.42
2022-10-16T18:02:30.744Z,15.49
2022-10-16T18:04:42.848Z,15.6
2022-10-16T18:06:56.908Z,15.65
2022-10-16T18:09:07.647Z,15.72
2022-10-16T18:11:23.095Z,15.72
2022-10-16T18:13:34.238Z,15.69
2022-10-16T18:15:47.922Z,15.69
2022-10-16T18:18:01.243Z,15.66
2022-10-16T18:20:10.489Z,15.62
2022-10-16T18:22:18.691Z,15.55
2022-10-16T18:24:29.637Z,15.51
2022-10-16T18:26:40.334Z,15.46
2022-10-16T18:28:49.915Z,15.31
2022-10-16T18:31:00.543Z,15.19
2022-10-16T18:33:11.252Z,15.06
2022-10-16T18:35:26.255Z,14.93
2022-10-16T18:37:45.866Z,14.8
2022-10-16T18:39:55.938Z,14.69
2022-10-16T18:42:12.191Z,14.61
2022-10-16T18:44:27.890Z,14.55
2022-10-16T18:46:40.474Z,14.53
2022-10-16T18:48:53.141Z,14.48
2022-10-16T18:51:04.257Z,14.46
2022-10-16T18:53:20.339Z,14.45
2022-10-16T18:55:31.304Z,14.45
2022-10-16T18:57:47.954Z,14.44
2022-10-16T18:59:59.562Z,14.38
2022-10-16T19:02:12.258Z,14.33
2022-10-16T19:04:36.221Z,14.21
2022-10-16T19:06:45.669Z,14.14
2022-10-16T19:08:59.259Z,14.05
2022-10-16T19:11:12.185Z,13.96
2022-10-16T19:13:28.801Z,13.88
2022-10-16T19:15:42.817Z,13.75
2022-10-16T19:18:33.354Z,13.69
2022-10-16T19:20:50.563Z,13.68
2022-10-16T19:22:58.676Z,13.69
2022-10-16T19:25:08.537Z,13.75
2022-10-16T19:27:16.210Z,13.75
2022-10-16T19:29:26.233Z,13.68
2022-10-16T19:31:33.618Z,13.61
2022-10-16T19:33:42.097Z,13.64
2022-10-16T19:35:54.667Z,13.57
2022-10-16T19:38:03.020Z,13.55
2022-10-16T19:40:10.762Z,13.65
2022-10-16T19:42:26.838Z,13.61
2022-10-16T19:44:36.246Z,13.62
2022-10-16T19:46:45.187Z,13.62
2022-10-16T19:48:53.763Z,13.62
2022-10-16T19:51:01.072Z,13.64
2022-10-16T19:53:08.095Z,13.66
2022-10-16T19:55:16.860Z,13.61
2022-10-16T19:57:24.414Z,13.55
2022-10-16T19:59:31.303Z,13.51
2022-10-16T20:01:44.881Z,13.44
2022-10-16T20:03:52.655Z,13.39
2022-10-16T20:06:00.103Z,13.37
2022-10-16T20:08:07.131Z,13.34
2022-10-16T20:10:15.152Z,13.26
2022-10-16T20:12:22.111Z,13.25
2022-10-16T20:14:29.161Z,13.22
2022-10-16T20:16:36.328Z,13.52
2022-10-16T20:18:43.061Z,13.6
2022-10-16T20:20:54.282Z,13.63
2022-10-16T20:23:01.698Z,13.7
2022-10-16T20:25:10.264Z,13.7
2022-10-16T20:27:23.324Z,13.77
2022-10-16T20:29:35.280Z,13.72
2022-10-16T20:31:41.122Z,13.73
2022-10-16T20:33:47.334Z,13.67
2022-10-16T20:35:53.766Z,13.75
2022-10-16T20:38:01.980Z,13.81
2022-10-16T20:40:08.668Z,13.85
2022-10-16T20:42:17.226Z,13.79
2022-10-16T20:44:23.316Z,13.75
2022-10-16T20:46:30.248Z,13.7
2022-10-16T20:48:37.373Z,13.66
2022-10-16T20:50:43.724Z,13.66
2022-10-16T20:52:49.746Z,13.82
2022-10-16T20:54:55.412Z,13.9
2022-10-16T20:57:01.289Z,13.88
2022-10-16T20:59:07.496Z,13.74
2022-10-16T21:01:13.987Z,13.68
2022-10-16T21:03:20.355Z,13.67
2022-10-16T21:05:26.272Z,13.77
2022-10-16T21:07:32.789Z,13.85
2022-10-16T21:09:38.359Z,13.85
2022-10-16T21:11:44.800Z,13.85
2022-10-16T21:13:50.802Z,13.88
2022-10-16T21:15:56.541Z,13.9
2022-10-16T21:18:03.086Z,13.81
2022-10-16T21:20:09.848Z,13.75
2022-10-16T21:22:15.978Z,13.7
2022-10-16T21:24:21.486Z,13.71
2022-10-16T21:26:27.629Z,13.63
2022-10-16T21:28:34.488Z,13.58
2022-10-16T21:30:41.360Z,13.77
2022-10-16T21:32:47.476Z,13.74
2022-10-16T21:34:52.692Z,13.74
2022-10-16T21:36:58.267Z,13.65
2022-10-16T21:39:04.135Z,13.57
2022-10-16T21:41:09.692Z,13.4
2022-10-16T21:43:15.152Z,13.21
2022-10-16T21:45:21.411Z,13.1
2022-10-16T21:47:27.252Z,13.04
2022-10-16T21:49:32.936Z,12.9
2022-10-16T21:51:38.653Z,12.77
2022-10-16T21:53:44.377Z,12.79
2022-10-16T21:55:50.663Z,12.84
2022-10-16T21:57:55.826Z,13.15
2022-10-16T22:00:02.154Z,13.18
2022-10-16T22:02:13.466Z,13.12
2022-10-16T22:04:19.322Z,12.97
2022-10-16T22:08:55.100Z,13.04
2022-10-16T22:11:00.721Z,12.94
2022-10-16T22:13:07.235Z,12.87
2022-10-16T22:15:12.340Z,13.08
2022-10-16T22:17:19.264Z,12.94
2022-10-16T22:19:24.750Z,12.72
2022-10-16T22:21:30.255Z,12.56
2022-10-16T22:23:35.830Z,12.39
2022-10-16T22:25:42.407Z,12.29
2022-10-16T22:27:47.557Z,12.23
2022-10-16T22:29:52.807Z,12.15
2022-10-16T22:31:57.887Z,12.08
2022-10-16T22:34:03.085Z,12.01
2022-10-16T22:36:08.227Z,11.99
2022-10-16T22:38:13.894Z,11.91
2022-10-16T22:40:18.940Z,11.84
2022-10-16T22:42:25.246Z,11.68
2022-10-16T22:44:30.952Z,11.6
2022-10-16T22:46:36.089Z,11.53
2022-10-16T22:48:41.426Z,11.43
2022-10-16T22:50:46.717Z,11.36
2022-10-16T22:52:52.044Z,11.25
2022-10-16T22:54:57.198Z,11.23
2022-10-16T22:57:02.915Z,11.21
2022-10-16T22:59:08.135Z,11.13
2022-10-16T23:01:13.433Z,11.08
2022-10-16T23:03:18.718Z,11.01
2022-10-16T23:05:24.453Z,11.01
2022-10-16T23:07:30.802Z,10.98
2022-10-16T23:09:36.400Z,10.94
2022-10-16T23:11:41.534Z,10.91
2022-10-16T23:13:46.593Z,10.87
2022-10-16T23:15:52.118Z,10.83
2022-10-16T23:17:57.506Z,10.81
2022-10-16T23:20:02.717Z,10.78
2022-10-16T23:22:08.371Z,10.82
2022-10-16T23:24:13.689Z,10.81
2022-10-16T23:26:19.274Z,10.78
2022-10-16T23:28:24.669Z,10.76
2022-10-16T23:30:30.022Z,10.71
2022-10-16T23:32:35.710Z,10.66
2022-10-16T23:34:41.081Z,10.64
2022-10-16T23:36:46.102Z,10.68
2022-10-16T23:38:51.496Z,10.68
2022-10-16T23:40:56.867Z,10.61
2022-10-16T23:43:02.199Z,10.52
2022-10-16T23:45:07.482Z,10.49
2022-10-16T23:47:13.038Z,10.47
2022-10-16T23:49:19.199Z,10.49
2022-10-16T23:51:24.603Z,10.46
2022-10-16T23:53:29.809Z,10.43
2022-10-16T23:55:34.970Z,10.42
2022-10-16T23:57:40.362Z,10.41
2022-10-16T23:59:45.505Z,10.41
